Time;durP1;ratioP1;P1;durP2;ratioP2;P2;SDS_P1;SDS_P2;PMS_P1;PMS_P2;Temp;Humidity;BMP_temperature;BMP_pressure;BME280_temperature;BME280_humidity;BME280_pressure;Samples;Min_cycle;Max_cycle;Signal;HPM_P1;HPM_P2
2022/07/06 00:01:48;;;;;;;4.17;2.40;;;;;;;11.01;80.32;102448.91;5050063;28;20275;-86
2022/07/06 00:04:13;;;;;;;4.23;2.10;;;;;;;11.02;80.29;102447.84;5050374;28;20093;-86
2022/07/06 00:06:39;;;;;;;7.70;2.30;;;;;;;10.95;80.37;102436.38;5050529;28;20021;-86
2022/07/06 00:09:05;;;;;;;7.17;2.60;;;;;;;11.01;80.69;102440.84;5050104;28;20029;-86
2022/07/06 00:11:30;;;;;;;6.57;2.28;;;;;;;10.98;80.89;102449.34;5049154;28;20531;-86
2022/07/06 00:13:59;;;;;;;5.07;2.63;;;;;;;10.91;81.11;102437.88;5049885;28;20037;-85
2022/07/06 00:16:25;;;;;;;4.15;2.38;;;;;;;10.89;80.31;102448.00;5031888;28;20515;-85
2022/07/06 00:18:50;;;;;;;6.10;2.60;;;;;;;10.91;80.72;102456.63;5054217;28;20067;-86
2022/07/06 00:21:16;;;;;;;6.83;2.30;;;;;;;10.83;81.04;102447.00;5053420;28;20036;-86
2022/07/06 00:23:42;;;;;;;3.72;2.35;;;;;;;10.85;80.82;102449.47;5054042;28;20400;-85
2022/07/06 00:26:07;;;;;;;4.87;2.37;;;;;;;10.81;81.32;102456.28;5052166;28;20033;-84
2022/07/06 00:28:32;;;;;;;3.70;2.33;;;;;;;10.77;81.27;102463.16;5053884;28;20079;-85
2022/07/06 00:30:57;;;;;;;5.50;2.50;;;;;;;10.73;81.55;102452.88;5053371;28;20044;-85
2022/07/06 00:33:23;;;;;;;5.20;2.10;;;;;;;10.72;81.38;102451.22;5053463;28;20056;-84
2022/07/06 00:35:48;;;;;;;4.93;2.40;;;;;;;10.69;81.68;102442.78;5053457;28;20033;-84
2022/07/06 00:38:14;;;;;;;5.10;2.40;;;;;;;10.62;81.93;102448.19;5035750;28;20373;-85
2022/07/06 00:40:40;;;;;;;3.70;2.37;;;;;;;10.59;81.81;102437.94;5052449;28;20112;-85
2022/07/06 00:43:05;;;;;;;5.60;2.63;;;;;;;10.60;82.15;102450.28;5053062;28;20033;-86
2022/07/06 00:45:30;;;;;;;4.00;2.40;;;;;;;10.59;82.58;102446.78;5052998;28;20028;-84
2022/07/06 00:47:56;;;;;;;6.57;2.70;;;;;;;10.50;82.62;102448.06;5053250;28;20087;-85
2022/07/06 00:50:21;;;;;;;4.67;2.87;;;;;;;10.40;82.42;102443.22;5052118;28;20080;-84
2022/07/06 00:52:53;;;;;;;3.78;2.70;;;;;;;10.41;83.15;102450.19;5053272;28;20063;-84
2022/07/06 00:55:21;;;;;;;6.22;2.97;;;;;;;10.38;83.60;102447.09;5051872;28;20124;-84
2022/07/06 00:57:47;;;;;;;4.50;2.70;;;;;;;10.35;83.34;102447.53;5053241;28;20392;-84
2022/07/06 01:00:15;;;;;;;4.90;2.90;;;;;;;10.29;83.60;102444.69;5052637;28;20291;-84
2022/07/06 01:02:41;;;;;;;5.70;3.15;;;;;;;10.26;83.08;102436.25;5053144;28;20028;-84
2022/07/06 01:05:08;;;;;;;6.20;2.97;;;;;;;10.23;84.10;102442.88;5052626;28;20029;-84
2022/07/06 01:07:35;;;;;;;4.32;2.92;;;;;;;10.22;83.86;102438.56;5052241;28;20045;-84
2022/07/06 01:10:04;;;;;;;4.28;2.72;;;;;;;10.26;84.17;102442.44;5052402;28;20021;-84
2022/07/06 01:12:31;;;;;;;8.30;3.05;;;;;;;10.22;84.81;102443.09;5052789;28;20060;-85
2022/07/06 01:14:56;;;;;;;7.57;3.00;;;;;;;10.20;84.63;102434.47;5052980;28;20028;-85
2022/07/06 01:17:22;;;;;;;5.47;3.10;;;;;;;10.19;84.56;102444.34;5052001;28;20371;-85
2022/07/06 01:19:50;;;;;;;6.53;3.03;;;;;;;10.11;85.00;102434.69;5052372;28;20120;-85
2022/07/06 01:22:15;;;;;;;3.95;3.17;;;;;;;10.08;84.92;102435.13;5050872;28;20141;-85
2022/07/06 01:24:41;;;;;;;5.17;3.10;;;;;;;10.04;84.90;102433.94;5052232;28;20052;-85
2022/07/06 01:27:07;;;;;;;3.67;2.80;;;;;;;10.10;84.69;102438.41;5053128;28;20302;-85
2022/07/06 01:29:34;;;;;;;5.82;2.78;;;;;;;10.09;84.67;102435.97;5052358;28;20396;-85
2022/07/06 01:32:00;;;;;;;6.07;3.30;;;;;;;10.05;85.58;102437.41;5052579;28;20028;-85
2022/07/06 01:34:25;;;;;;;5.20;2.90;;;;;;;10.02;86.05;102443.19;5052334;28;20287;-85
2022/07/06 01:36:51;;;;;;;6.30;2.88;;;;;;;10.02;85.68;102440.53;5051229;28;20029;-85
2022/07/06 01:39:16;;;;;;;4.77;3.07;;;;;;;9.96;85.33;102439.53;5052566;28;20062;-85
2022/07/06 01:41:42;;;;;;;4.13;2.90;;;;;;;9.91;85.91;102436.66;5051471;28;20449;-84
2022/07/06 01:44:07;;;;;;;7.25;3.42;;;;;;;9.83;85.91;102429.69;5051912;28;20021;-84
2022/07/06 01:46:33;;;;;;;6.07;3.13;;;;;;;9.83;86.67;102435.06;5052220;28;20032;-85
2022/07/06 01:48:59;;;;;;;6.35;2.92;;;;;;;9.78;86.75;102435.69;5052474;28;20045;-85
2022/07/06 01:51:24;;;;;;;4.35;2.60;;;;;;;9.78;87.19;102434.84;5051694;28;20511;-85
2022/07/06 01:53:51;;;;;;;4.77;2.80;;;;;;;9.80;87.02;102443.50;5050702;28;20503;-85
2022/07/06 01:56:17;;;;;;;6.93;3.05;;;;;;;9.75;87.27;102436.13;5052309;28;20033;-85
2022/07/06 01:58:42;;;;;;;3.85;2.70;;;;;;;9.74;86.91;102431.78;5052164;28;20036;-85
2022/07/06 02:01:17;;;;;;;3.57;2.60;;;;;;;9.77;86.91;102430.56;5050939;28;20025;-85
2022/07/06 02:03:44;;;;;;;4.30;2.63;;;;;;;9.73;87.17;102437.38;5052220;28;20162;-85
2022/07/06 02:06:11;;;;;;;6.00;3.05;;;;;;;9.71;87.33;102440.25;5052170;28;20033;-84
2022/07/06 02:08:41;;;;;;;6.38;2.95;;;;;;;9.66;87.86;102440.09;5049682;28;20112;-83
2022/07/06 02:11:17;;;;;;;8.25;3.33;;;;;;;9.63;87.77;102443.19;5050797;28;20032;-83
2022/07/06 02:13:42;;;;;;;8.15;3.35;;;;;;;9.58;87.20;102440.31;5050788;28;20071;-84
2022/07/06 02:16:08;;;;;;;5.50;3.27;;;;;;;9.49;88.28;102437.88;5050561;28;20488;-86
2022/07/06 02:18:33;;;;;;;6.60;3.30;;;;;;;9.48;88.26;102448.78;5051955;28;20032;-87
2022/07/06 02:20:58;;;;;;;6.33;3.03;;;;;;;9.40;88.44;102434.59;5050729;28;20021;-87
2022/07/06 02:23:25;;;;;;;6.67;3.23;;;;;;;9.38;88.74;102438.50;5051953;28;20548;-86
2022/07/06 02:25:51;;;;;;;5.35;3.22;;;;;;;9.36;88.50;102437.91;5051839;28;20023;-85
2022/07/06 02:28:16;;;;;;;7.10;3.40;;;;;;;9.30;88.76;102428.88;5050334;28;20029;-87
2022/07/06 02:30:42;;;;;;;6.22;3.42;;;;;;;9.33;89.31;102441.00;5049970;28;20044;-84
2022/07/06 02:33:07;;;;;;;8.60;3.77;;;;;;;9.30;89.48;102438.75;5052018;28;20080;-84
2022/07/06 02:35:32;;;;;;;6.30;3.43;;;;;;;9.26;89.60;102432.19;5051269;28;20036;-84
2022/07/06 02:37:58;;;;;;;5.13;3.60;;;;;;;9.22;89.42;102437.94;5050184;28;20441;-84
2022/07/06 02:40:23;;;;;;;6.47;3.80;;;;;;;9.29;89.47;102435.25;5054942;28;20033;-84
2022/07/06 02:42:49;;;;;;;5.90;3.60;;;;;;;9.21;90.10;102430.13;5052541;28;20029;-84
2022/07/06 02:45:15;;;;;;;6.03;4.18;;;;;;;9.27;90.07;102442.66;5051401;28;20025;-85
2022/07/06 02:47:46;;;;;;;6.00;3.43;;;;;;;9.25;90.23;102439.34;5051309;28;20040;-85
2022/07/06 02:50:12;;;;;;;8.50;4.00;;;;;;;9.20;90.15;102425.81;5051077;28;20302;-85
2022/07/06 02:52:40;;;;;;;5.10;3.75;;;;;;;9.24;90.05;102424.34;5062581;28;20158;-85
2022/07/06 02:55:06;;;;;;;5.80;4.10;;;;;;;9.22;89.98;102431.78;5051397;28;20416;-85
2022/07/06 02:57:31;;;;;;;11.35;4.57;;;;;;;9.14;90.85;102435.47;5051301;28;20115;-85
2022/07/06 02:59:56;;;;;;;7.90;4.03;;;;;;;9.16;91.11;102444.09;5050034;28;20082;-84
2022/07/06 03:02:22;;;;;;;7.87;4.20;;;;;;;9.14;91.32;102448.84;5048641;28;20499;-84
2022/07/06 03:04:47;;;;;;;9.40;4.57;;;;;;;9.07;91.42;102450.72;5032368;28;20028;-84
2022/07/06 03:07:12;;;;;;;5.13;4.03;;;;;;;9.08;90.89;102447.03;5050200;28;20476;-85
2022/07/06 03:09:37;;;;;;;9.07;3.97;;;;;;;9.08;90.84;102452.38;5049177;28;20086;-83
2022/07/06 03:12:03;;;;;;;7.20;4.05;;;;;;;9.11;91.31;102446.59;5049565;28;20029;-83
2022/07/06 03:14:28;;;;;;;6.77;4.57;;;;;;;9.05;91.51;102440.22;5049380;28;20687;-83
2022/07/06 03:16:54;;;;;;;11.27;4.50;;;;;;;9.08;91.25;102447.03;5049990;28;20051;-83
2022/07/06 03:19:20;;;;;;;10.77;4.38;;;;;;;9.08;91.74;102447.03;5030900;28;20031;-84
2022/07/06 03:21:46;;;;;;;9.13;4.60;;;;;;;9.05;92.14;102458.13;5046269;28;20901;-83
2022/07/06 03:24:11;;;;;;;6.57;4.32;;;;;;;9.05;91.60;102452.78;5044605;28;20492;-83
2022/07/06 03:26:45;;;;;;;10.60;4.53;;;;;;;9.01;92.07;102459.56;5050743;28;20040;-82
2022/07/06 03:29:10;;;;;;;9.23;4.88;;;;;;;8.96;91.76;102454.00;5033439;28;20087;-83
2022/07/06 03:31:35;;;;;;;10.27;4.90;;;;;;;8.99;92.13;102462.47;5049585;28;20129;-82
2022/07/06 03:34:00;;;;;;;7.22;4.95;;;;;;;9.03;92.07;102461.03;5050476;28;20036;-84
2022/07/06 03:36:26;;;;;;;9.50;4.73;;;;;;;9.01;92.16;102457.72;5050189;28;20037;-83
2022/07/06 03:38:58;;;;;;;9.80;4.87;;;;;;;9.04;92.07;102456.47;5053633;28;20122;-83
2022/07/06 03:41:24;;;;;;;9.57;5.15;;;;;;;9.04;92.25;102453.81;5049402;28;20028;-83
2022/07/06 03:43:49;;;;;;;7.13;5.13;;;;;;;9.01;91.68;102441.69;5050390;28;20025;-83
2022/07/06 03:46:14;;;;;;;9.53;5.13;;;;;;;9.07;91.97;102456.88;5049515;28;20102;-84
2022/07/06 03:48:40;;;;;;;9.70;5.00;;;;;;;9.08;92.80;102458.53;5049870;28;20029;-84
2022/07/06 03:51:06;;;;;;;7.10;4.87;;;;;;;9.08;92.21;102452.38;5050699;28;20368;-84
2022/07/06 03:53:31;;;;;;;8.60;4.90;;;;;;;9.11;92.00;102456.47;5036211;28;20036;-86
2022/07/06 03:58:40;;;;;;;8.37;4.80;;;;;;;9.16;91.38;102454.00;5055156;28;20189;-84
2022/07/06 04:01:05;;;;;;;8.07;4.90;;;;;;;9.21;91.54;102455.00;5054781;28;20128;-84
2022/07/06 04:03:31;;;;;;;9.30;4.73;;;;;;;9.18;91.92;102452.75;5056641;28;20020;-83
2022/07/06 04:05:57;;;;;;;9.03;5.23;;;;;;;9.19;92.50;102449.03;5054642;28;20167;-83
2022/07/06 04:08:23;;;;;;;7.18;5.00;;;;;;;9.19;92.73;102449.03;5053429;28;20042;-84
2022/07/06 04:10:48;;;;;;;8.73;5.17;;;;;;;9.29;92.71;102453.16;5049194;28;20400;-86
2022/07/06 04:13:13;;;;;;;8.80;5.00;;;;;;;9.31;92.41;102459.13;5040054;28;20465;-87
2022/07/06 04:15:48;;;;;;;9.47;4.73;;;;;;;9.34;91.68;102451.50;5053546;28;20071;-87
2022/07/06 04:18:13;;;;;;;7.82;4.72;;;;;;;9.35;92.43;102447.78;5039534;28;20491;-87
2022/07/06 04:20:38;;;;;;;9.87;4.80;;;;;;;9.34;91.48;102446.16;5051294;28;20024;-87
2022/07/06 04:23:04;;;;;;;8.80;5.28;;;;;;;9.31;92.25;102451.09;5039844;28;20033;-83
2022/07/06 04:25:29;;;;;;;9.43;5.03;;;;;;;9.29;91.94;102442.47;5029867;28;20063;-84
2022/07/06 04:27:54;;;;;;;5.03;4.30;;;;;;;9.34;91.85;102438.13;5035665;28;20027;-85
2022/07/06 04:30:26;;;;;;;6.67;4.87;;;;;;;9.14;92.12;102403.38;5052362;23;20396;-86
2022/07/06 04:32:52;;;;;;;7.47;4.72;;;;;;;9.26;92.88;102419.59;5070656;28;20036;-86
2022/07/06 04:35:17;;;;;;;8.40;4.60;;;;;;;9.43;91.90;102443.22;5074563;28;20088;-88
2022/07/06 04:37:51;;;;;;;9.50;5.00;;;;;;;9.45;92.37;102433.97;5060829;28;20032;-87
2022/07/06 04:40:16;;;;;;;10.18;5.38;;;;;;;9.48;91.99;102441.59;5073165;28;20024;-86
2022/07/06 04:42:41;;;;;;;7.57;4.87;;;;;;;9.55;91.82;102437.00;5071758;28;20032;-85
2022/07/06 04:45:08;;;;;;;6.97;4.63;;;;;;;9.62;91.52;102428.16;5073719;28;20037;-86
2022/07/06 04:47:34;;;;;;;9.93;5.03;;;;;;;9.84;91.71;102434.84;5050718;28;20302;-86
2022/07/06 04:50:00;;;;;;;7.15;4.68;;;;;;;9.99;91.16;102434.56;5073261;28;20078;-86
2022/07/06 04:52:25;;;;;;;12.05;5.65;;;;;;;10.09;91.23;102435.97;5072581;28;20029;-86
2022/07/06 04:54:50;;;;;;;11.30;5.00;;;;;;;10.80;90.12;102444.75;5073984;28;20032;-87
2022/07/06 04:57:15;;;;;;;9.93;5.83;;;;;;;12.40;85.15;102452.00;5071395;28;20028;-87
2022/07/06 04:59:41;;;;;;;7.30;4.73;;;;;;;13.92;78.47;102444.25;5072992;28;20027;-88
2022/07/06 05:02:06;;;;;;;6.30;4.47;;;;;;;15.33;72.66;102454.34;5074385;28;20480;-87
2022/07/06 05:04:32;;;;;;;4.88;3.80;;;;;;;16.34;68.28;102446.78;5065797;28;20037;-89
2022/07/06 05:07:01;;;;;;;5.93;3.73;;;;;;;17.24;65.32;102460.69;5062998;28;20029;-89
2022/07/06 05:09:26;;;;;;;6.63;3.47;;;;;;;17.93;59.86;102456.06;5128968;22;20040;-87
2022/07/06 05:11:51;;;;;;;4.80;3.27;;;;;;;18.59;57.97;102464.53;5055964;28;20029;-87
2022/07/06 05:14:16;;;;;;;7.47;3.78;;;;;;;18.83;56.97;102466.69;5052182;28;20392;-87
2022/07/06 05:16:42;;;;;;;4.37;3.27;;;;;;;18.55;57.19;102468.88;5052926;28;20028;-88
2022/07/06 05:19:07;;;;;;;5.97;3.57;;;;;;;17.93;58.40;102476.94;5054310;28;20021;-86
2022/07/06 05:21:32;;;;;;;5.03;3.60;;;;;;;16.89;61.71;102467.50;5068569;28;20032;-87
2022/07/06 05:23:58;;;;;;;8.00;3.87;;;;;;;16.04;63.26;102480.59;5073470;28;20021;-87
2022/07/06 05:26:26;;;;;;;10.20;3.80;;;;;;;15.65;65.59;102477.16;5073134;28;20027;-87
2022/07/06 05:28:51;;;;;;;5.75;3.80;;;;;;;15.64;66.07;102480.94;5061176;28;20061;-84
2022/07/06 05:31:20;;;;;;;8.47;3.53;;;;;;;15.43;66.53;102476.06;5051471;28;20118;-85
2022/07/06 05:33:46;;;;;;;6.93;3.88;;;;;;;15.03;68.51;102477.16;5047371;28;20029;-86
2022/07/06 05:36:11;;;;;;;9.70;3.42;;;;;;;14.58;70.22;102470.78;5051155;28;20036;-88
2022/07/06 05:38:36;;;;;;;10.70;4.27;;;;;;;14.31;72.96;102475.97;5050971;28;20044;-85
2022/07/06 05:41:02;;;;;;;9.23;4.00;;;;;;;15.15;72.11;102477.06;5048529;28;20044;-84
2022/07/06 05:43:27;;;;;;;6.67;3.77;;;;;;;16.88;66.05;102477.53;5048797;28;20476;-85
2022/07/06 05:45:52;;;;;;;6.43;3.72;;;;;;;17.96;62.12;102473.69;5046627;28;20039;-84
2022/07/06 05:51:11;;;;;;;8.38;3.60;;;;;;;18.13;61.54;102487.88;5050285;28;20131;-84
2022/07/06 05:53:36;;;;;;;4.07;3.10;;;;;;;18.48;59.41;102482.72;5051156;28;20025;-85
2022/07/06 05:56:01;;;;;;;5.50;3.20;;;;;;;19.00;59.75;102488.13;5051524;28;20043;-85
2022/07/06 05:58:27;;;;;;;4.47;2.90;;;;;;;19.44;57.19;102490.19;5043988;28;20481;-85
2022/07/06 06:00:52;;;;;;;5.23;2.73;;;;;;;19.88;56.00;102499.53;5044646;28;20024;-84
2022/07/06 06:03:20;;;;;;;3.67;2.60;;;;;;;19.73;55.67;102494.16;5047108;28;20028;-84
2022/07/06 06:05:49;;;;;;;4.78;2.80;;;;;;;18.99;57.02;102470.25;5043998;28;20029;-84
2022/07/06 06:08:14;;;;;;;7.10;2.83;;;;;;;18.34;59.99;102490.63;5045603;28;20024;-85
2022/07/06 06:10:40;;;;;;;5.47;2.63;;;;;;;17.82;62.00;102500.50;5046615;28;20059;-87
2022/07/06 06:13:05;;;;;;;4.38;2.72;;;;;;;17.67;62.50;102491.25;5050288;28;20028;-85
2022/07/06 06:15:30;;;;;;;5.00;2.70;;;;;;;17.65;63.15;102492.56;5049943;28;20068;-86
2022/07/06 06:18:03;;;;;;;2.77;2.40;;;;;;;17.96;62.94;102490.78;5047932;28;20043;-86
2022/07/06 06:20:29;;;;;;;5.20;2.70;;;;;;;18.65;61.30;102495.22;5025387;28;20070;-86
2022/07/06 06:22:58;;;;;;;3.23;1.90;;;;;;;19.00;58.06;102488.97;5044706;28;20039;-85
2022/07/06 06:25:35;;;;;;;5.72;2.15;;;;;;;18.97;59.66;102480.56;5020552;28;21862;-85
2022/07/06 06:28:03;;;;;;;3.60;1.60;;;;;;;19.05;57.84;102488.97;5049471;28;20048;-85
2022/07/06 06:30:28;;;;;;;4.40;1.33;;;;;;;19.15;56.48;102490.84;5031696;28;20692;-82
2022/07/06 06:33:10;;;;;;;3.13;1.30;;;;;;;18.93;57.75;102496.53;5049898;28;20037;-87
2022/07/06 06:35:37;;;;;;;2.60;1.08;;;;;;;18.54;58.48;102488.97;5049900;28;20453;-86
2022/07/06 06:38:02;;;;;;;1.20;1.10;;;;;;;18.37;57.26;102491.97;5051126;28;20017;-84
2022/07/06 06:40:28;;;;;;;1.52;0.90;;;;;;;17.90;57.97;102491.84;5051836;28;20337;-86
2022/07/06 06:42:53;;;;;;;3.70;0.83;;;;;;;17.74;59.99;102493.69;5051308;28;20033;-86
2022/07/06 06:45:18;;;;;;;2.80;1.00;;;;;;;17.91;60.39;102496.19;5050384;28;20036;-88
2022/07/06 06:47:43;;;;;;;2.93;1.10;;;;;;;18.04;60.12;102485.94;5047010;28;20033;-85
2022/07/06 06:50:09;;;;;;;3.27;1.10;;;;;;;18.19;58.99;102504.97;5028860;28;20025;-86
2022/07/06 06:52:34;;;;;;;3.00;1.33;;;;;;;18.31;59.61;102500.09;5046274;28;20053;-86
2022/07/06 06:55:00;;;;;;;1.77;1.17;;;;;;;18.38;58.77;102494.38;5047359;28;20047;-89
2022/07/06 06:57:25;;;;;;;2.77;1.10;;;;;;;18.53;58.50;102495.50;5046927;28;20029;-90
2022/07/06 06:59:50;;;;;;;4.13;1.20;;;;;;;18.64;57.01;102496.28;5035797;28;20021;-90
2022/07/06 07:02:16;;;;;;;1.50;0.80;;;;;;;18.67;57.70;102506.59;5048771;28;20025;-91
2022/07/06 07:04:41;;;;;;;2.65;1.10;;;;;;;18.87;57.12;102508.50;5048443;28;20407;-91
2022/07/06 07:07:06;;;;;;;3.23;1.37;;;;;;;19.04;55.28;102502.81;5054668;28;20036;-91
2022/07/06 07:09:31;;;;;;;5.07;1.13;;;;;;;19.29;55.90;102503.84;5051196;28;20095;-91
2022/07/06 07:11:57;;;;;;;2.53;1.10;;;;;;;19.32;56.04;102493.22;5054936;28;20078;-91
2022/07/06 07:14:23;;;;;;;1.58;1.00;;;;;;;19.64;54.83;102512.94;5049219;28;20539;-91
2022/07/06 07:16:48;;;;;;;1.67;1.20;;;;;;;19.74;53.88;102515.59;5065464;28;20028;-91
2022/07/06 07:19:13;;;;;;;2.63;1.30;;;;;;;19.65;53.54;102514.56;5085464;22;20204;-91
2022/07/06 07:21:39;;;;;;;2.07;1.10;;;;;;;19.47;53.66;102508.66;5049616;28;20036;-91
2022/07/06 07:24:04;;;;;;;3.70;0.90;;;;;;;19.39;53.73;102519.28;5069845;28;20032;-91
2022/07/06 07:26:29;;;;;;;3.08;1.10;;;;;;;19.00;54.53;102515.28;5056850;28;20036;-91
2022/07/06 07:28:55;;;;;;;5.40;1.30;;;;;;;18.61;56.24;102509.34;5041175;28;20063;-90
2022/07/06 07:31:21;;;;;;;6.83;1.20;;;;;;;18.48;58.03;102515.28;5039405;28;20079;-90
2022/07/06 07:33:46;;;;;;;2.03;1.15;;;;;;;18.39;58.82;102516.94;5021812;28;20037;-90
2022/07/06 07:36:11;;;;;;;3.27;1.50;;;;;;;18.35;58.85;102511.19;5026490;28;20103;-90
2022/07/06 07:38:38;;;;;;;3.50;0.90;;;;;;;18.21;56.62;102513.66;5006177;28;20139;-91
2022/07/06 07:41:03;;;;;;;3.53;1.20;;;;;;;18.12;58.07;102516.06;5009342;28;20038;-90
2022/07/06 07:43:29;;;;;;;5.68;1.10;;;;;;;18.10;56.44;102511.97;5005220;28;20030;-90
2022/07/06 07:45:54;;;;;;;2.87;0.90;;;;;;;18.00;55.52;102513.59;5009488;28;20402;-88
2022/07/06 07:48:19;;;;;;;1.43;1.00;;;;;;;18.05;56.55;102503.84;5008628;28;20057;-89
2022/07/06 07:50:45;;;;;;;1.60;0.50;;;;;;;17.93;55.76;102512.19;5009823;28;20030;-89
2022/07/06 07:53:10;;;;;;;1.65;0.70;;;;;;;17.96;56.94;102504.34;5005839;28;20053;-87
2022/07/06 07:55:35;;;;;;;1.23;0.67;;;;;;;18.14;55.82;102503.06;5001208;28;20037;-87
2022/07/06 07:58:01;;;;;;;2.87;0.80;;;;;;;18.21;54.12;102508.22;5002641;28;20053;-86
2022/07/06 08:00:28;;;;;;;3.00;0.70;;;;;;;18.19;55.45;102515.81;5004499;28;20101;-86
2022/07/06 08:02:54;;;;;;;1.60;0.50;;;;;;;18.15;54.72;102509.28;5008181;28;20049;-87
2022/07/06 08:05:20;;;;;;;2.58;0.70;;;;;;;18.13;54.77;102509.56;5006317;28;20036;-86
2022/07/06 08:07:45;;;;;;;2.90;0.87;;;;;;;18.30;55.81;102498.47;5008908;28;20456;-85
2022/07/06 08:10:10;;;;;;;2.47;0.70;;;;;;;18.55;54.17;102493.31;5008582;28;20076;-85
2022/07/06 08:12:36;;;;;;;3.72;0.60;;;;;;;18.87;54.18;102506.59;5002642;28;20070;-86
2022/07/06 08:15:02;;;;;;;1.23;0.60;;;;;;;19.00;53.50;102496.28;4983094;28;20038;-86
2022/07/06 08:17:28;;;;;;;6.28;0.70;;;;;;;18.99;53.16;102484.63;5004945;28;20033;-86
2022/07/06 08:19:53;;;;;;;3.07;0.80;;;;;;;19.10;52.58;102495.44;5008430;28;20037;-86
2022/07/06 08:22:18;;;;;;;4.37;0.80;;;;;;;19.14;53.62;102491.09;5009444;28;20026;-87
2022/07/06 08:24:43;;;;;;;2.07;0.87;;;;;;;19.35;53.25;102494.59;5006796;28;20041;-87
2022/07/06 08:27:09;;;;;;;2.35;0.70;;;;;;;19.53;52.41;102498.59;5007564;28;20084;-86
2022/07/06 08:29:34;;;;;;;3.67;0.80;;;;;;;19.53;50.51;102498.59;5009191;28;20034;-85
2022/07/06 08:31:59;;;;;;;2.80;0.90;;;;;;;19.65;51.73;102504.50;5005705;28;20393;-86
2022/07/06 08:34:25;;;;;;;1.93;1.00;;;;;;;19.74;51.17;102499.28;5007320;28;20065;-86
2022/07/06 08:36:50;;;;;;;1.73;0.60;;;;;;;19.55;50.96;102495.56;4990211;28;20073;-85
2022/07/06 08:39:15;;;;;;;3.15;0.60;;;;;;;19.81;51.76;102482.69;4991459;28;20029;-87
2022/07/06 08:41:43;;;;;;;2.83;0.77;;;;;;;20.01;50.52;102489.94;4994300;28;20093;-86
2022/07/06 08:44:09;;;;;;;3.00;0.90;;;;;;;20.39;50.65;102497.56;5001845;28;20033;-86
2022/07/06 08:46:38;;;;;;;1.90;0.70;;;;;;;21.05;48.61;102494.53;5001266;28;20034;-87
2022/07/06 08:49:06;;;;;;;3.40;0.70;;;;;;;21.63;46.58;102490.91;5008156;28;20906;-87
2022/07/06 08:51:38;;;;;;;2.50;0.73;;;;;;;21.66;46.51;102490.28;5009648;28;20037;-87
2022/07/06 08:54:04;;;;;;;1.77;0.52;;;;;;;21.81;45.68;102489.28;5008920;28;20029;-87
2022/07/06 08:56:29;;;;;;;3.17;0.80;;;;;;;21.75;45.53;102479.53;5010510;28;20389;-87
2022/07/06 08:58:55;;;;;;;2.33;0.90;;;;;;;21.69;45.02;102483.44;5009844;28;20448;-87
2022/07/06 09:01:21;;;;;;;0.70;0.60;;;;;;;21.54;44.66;102481.69;4997451;28;20022;-87
2022/07/06 09:03:49;;;;;;;3.85;0.60;;;;;;;21.28;45.99;102482.84;5006057;28;20167;-87
2022/07/06 09:06:18;;;;;;;2.05;0.80;;;;;;;21.25;46.04;102485.34;5006116;28;20474;-86
2022/07/06 09:08:43;;;;;;;2.03;0.80;;;;;;;21.34;46.08;102475.41;5003271;28;20049;-87
2022/07/06 09:11:10;;;;;;;1.57;0.70;;;;;;;21.67;46.25;102485.66;5002963;28;20032;-85
2022/07/06 09:13:35;;;;;;;2.50;0.82;;;;;;;21.78;43.85;102476.22;5001927;28;20054;-87
2022/07/06 09:16:13;;;;;;;4.90;0.90;;;;;;;21.63;45.26;102480.78;5015193;28;20133;-87
2022/07/06 09:18:43;;;;;;;5.07;0.63;;;;;;;21.37;46.29;102477.53;5014525;28;20084;-90
2022/07/06 09:21:08;;;;;;;4.10;0.80;;;;;;;21.16;45.56;102471.53;5002658;28;20025;-90
2022/07/06 09:23:34;;;;;;;2.30;0.80;;;;;;;21.20;46.92;102483.47;5008533;28;20033;-89
2022/07/06 09:26:10;;;;;;;1.97;0.60;;;;;;;21.61;44.84;102482.19;5005571;28;20034;-90
2022/07/06 09:28:43;;;;;;;1.13;0.80;;;;;;;22.12;44.43;102482.56;5001630;28;20293;-89
2022/07/06 09:31:09;;;;;;;4.72;0.85;;;;;;;22.77;43.86;102484.50;4998652;28;20087;-89
2022/07/06 09:33:35;;;;;;;1.15;0.73;;;;;;;23.26;42.97;102486.88;5003325;28;20038;-89
2022/07/06 09:36:02;;;;;;;2.22;0.90;;;;;;;23.31;41.43;102475.00;5004852;28;20036;-86
2022/07/06 09:38:28;;;;;;;1.98;0.88;;;;;;;23.35;40.77;102489.69;5008753;28;20070;-87
2022/07/06 09:40:53;;;;;;;4.13;0.90;;;;;;;23.11;41.14;102486.03;5007700;28;20114;-89
2022/07/06 09:43:23;;;;;;;3.27;0.80;;;;;;;23.28;41.75;102492.84;5011136;28;20119;-87
2022/07/06 09:45:55;;;;;;;2.35;0.80;;;;;;;23.64;41.42;102489.38;4995480;28;20027;-88
2022/07/06 09:48:27;;;;;;;2.17;0.80;;;;;;;23.80;40.26;102495.31;5001469;28;20030;-88
2022/07/06 09:51:06;;;;;;;2.83;0.90;;;;;;;24.47;40.72;102492.91;5002150;28;20108;-89
2022/07/06 09:53:35;;;;;;;3.93;0.80;;;;;;;24.56;38.64;102501.22;5004624;28;20292;-89
2022/07/06 09:56:01;;;;;;;1.55;0.68;;;;;;;24.57;38.48;102498.16;5008986;28;20030;-89
2022/07/06 09:58:27;;;;;;;1.10;0.80;;;;;;;24.58;37.84;102498.94;5008612;28;20022;-87
2022/07/06 10:00:53;;;;;;;4.30;1.05;;;;;;;24.57;38.29;102495.41;5009308;28;20084;-89
2022/07/06 10:03:19;;;;;;;3.13;0.80;;;;;;;24.40;38.32;102495.31;5009263;28;20076;-89
2022/07/06 10:05:46;;;;;;;1.95;0.95;;;;;;;24.16;37.70;102499.16;5009727;28;20099;-90
2022/07/06 10:08:13;;;;;;;1.80;0.80;;;;;;;24.24;36.50;102503.09;5008272;28;20084;-89
2022/07/06 10:10:39;;;;;;;3.75;0.85;;;;;;;24.39;36.87;102493.69;5007731;28;20088;-86
2022/07/06 10:13:06;;;;;;;1.17;0.70;;;;;;;24.54;36.19;102493.28;5009326;28;20105;-88
2022/07/06 10:15:32;;;;;;;2.90;0.90;;;;;;;24.75;36.71;102495.53;5014141;28;20112;-88
2022/07/06 10:18:00;;;;;;;1.87;0.63;;;;;;;24.87;36.40;102503.16;5010114;28;20057;-87
2022/07/06 10:20:31;;;;;;;2.73;1.10;;;;;;;25.07;35.63;102504.53;5001905;28;20804;-87
2022/07/06 10:22:59;;;;;;;1.05;0.60;;;;;;;25.24;35.60;102504.59;5010644;28;20513;-88
2022/07/06 10:25:25;;;;;;;1.45;0.82;;;;;;;25.12;35.56;102500.84;5004921;28;20088;-88
2022/07/06 10:27:52;;;;;;;1.70;0.90;;;;;;;25.12;35.66;102504.41;5010466;28;20048;-87
2022/07/06 10:30:18;;;;;;;3.35;1.00;;;;;;;25.00;36.14;102506.94;5005375;28;20022;-88
2022/07/06 10:32:46;;;;;;;2.65;0.80;;;;;;;24.92;35.49;102501.09;5009212;28;20032;-87
2022/07/06 10:35:12;;;;;;;1.70;0.98;;;;;;;24.99;35.84;102508.06;5006681;28;20037;-88
2022/07/06 10:37:38;;;;;;;2.90;0.93;;;;;;;24.89;35.56;102498.19;5007584;28;20057;-87
2022/07/06 10:42:51;;;;;;;3.97;1.20;;;;;;;24.93;35.36;102501.88;5006921;28;20738;-84
2022/07/06 10:45:46;;;;;;;3.47;0.85;;;;;;;25.26;35.68;102501.53;5008498;28;20026;-84
2022/07/06 10:48:11;;;;;;;1.63;0.63;;;;;;;25.32;35.03;102494.75;5004789;28;20054;-84
2022/07/06 10:50:55;;;;;;;2.43;0.70;;;;;;;25.48;35.67;102497.09;5009301;28;20043;-84
2022/07/06 10:53:30;;;;;;;1.23;0.88;;;;;;;25.36;34.94;102494.94;4994670;28;20022;-85
2022/07/06 10:55:56;;;;;;;2.17;0.87;;;;;;;25.27;33.50;102505.09;5006266;28;20033;-84
2022/07/06 10:58:34;;;;;;;2.30;1.10;;;;;;;25.24;35.53;102499.09;5007994;28;20906;-85
2022/07/06 11:01:00;;;;;;;2.17;0.88;;;;;;;25.07;33.35;102490.81;5004478;28;20505;-84
2022/07/06 11:03:42;;;;;;;3.63;0.80;;;;;;;25.16;34.57;102497.16;5006081;28;20052;-83
2022/07/06 11:06:14;;;;;;;2.65;0.90;;;;;;;25.27;34.91;102483.97;5009829;28;20025;-84
2022/07/06 11:08:42;;;;;;;2.00;0.70;;;;;;;25.50;35.68;102489.34;5001107;28;20065;-84
2022/07/06 11:11:34;;;;;;;1.58;0.82;;;;;;;25.28;33.21;102487.50;5007310;28;20037;-84
2022/07/06 11:14:09;;;;;;;1.48;0.93;;;;;;;25.07;33.35;102482.59;5003979;28;20030;-83
2022/07/06 11:16:39;;;;;;;1.35;0.95;;;;;;;24.90;33.85;102486.88;4999882;28;20040;-85
2022/07/06 11:19:11;;;;;;;2.72;0.80;;;;;;;24.92;34.51;102490.13;5000775;28;20084;-85
2022/07/06 11:21:41;;;;;;;4.40;0.80;;;;;;;24.18;34.08;102491.44;5000130;28;20033;-85
2022/07/06 11:24:09;;;;;;;2.10;0.60;;;;;;;23.53;35.85;102480.56;5001599;28;20878;-84
2022/07/06 11:26:36;;;;;;;6.97;0.98;;;;;;;23.64;35.64;102483.88;5008721;28;20746;-84
2022/07/06 11:29:05;;;;;;;1.90;0.70;;;;;;;23.84;36.76;102476.34;5011096;28;20105;-84
2022/07/06 11:31:34;;;;;;;1.13;0.57;;;;;;;24.14;36.46;102484.97;5006429;28;20425;-84
2022/07/06 11:33:59;;;;;;;5.78;0.60;;;;;;;24.44;37.00;102490.81;5010395;28;20057;-82